Latest Coastal Weather Observations for Mandurah

IDW60701

Issued at 5:32 pm WST Sunday 29 May 2016 (issued every 10 minutes, with the page automatically refreshed every 10 minutes)

About coastal observations | Map of coastal stations | Coastal observations for WA | Marine services | Other Formats
Station Details ID: 009977 Name: MANDURAH Lat: -32.52 Lon: 115.71 Height: 3.0 m
Data from the previous 72 hours. | See also: Recent months at Mandurah
Date/Time
WST
Temp

°C
Wind Pressure Rain
since 9am
mm
Weather Cloud Vis
km
Sea
Height
m
Swell
Dir
 
Speed
knots
Gust
knots
hPa Trend Height
m
Period
s
Dir
29/05:30pm 15.4 S 1 2 1018.6 - 0.0 - - - - - - -
29/05:00pm 16.0 S 2 4 1018.4 - 0.0 - - - - - - -
29/04:30pm 16.9 S 4 7 1018.3 - 0.0 - - - - - - -
29/04:00pm 17.0 S 5 6 1018.1 - 0.0 - - - - - - -
29/03:30pm 17.1 S 4 6 1018.0 - 0.0 - - - - - - -
29/03:00pm 17.3 SSE 5 7 1017.8 - 0.0 - - - - - - -
29/02:30pm 17.3 S 4 6 1017.7 - 0.0 - - - - - - -
29/02:00pm 17.2 S 5 8 1017.6 - 0.0 - - - - - - -
29/01:30pm 17.3 S 6 9 1017.9 - 0.0 - - - - - - -
29/01:00pm 17.2 S 4 7 1018.2 - 0.0 - - - - - - -
29/12:30pm 16.2 SSE 3 6 1018.6 - 0.0 - - - - - - -
29/12:00pm 16.0 S 4 6 1019.0 - 0.0 - - - - - - -
29/11:30am 15.7 S 2 4 1019.5 - 0.0 - - - - - - -
29/11:00am 14.7 S 3 4 1019.8 - 0.0 - - - - - - -
29/10:30am 14.2 S 2 3 1019.9 - 0.0 - - - - - - -
29/10:00am 14.1 SSE 3 4 1019.8 - 0.0 - - - - - - -
29/09:30am 13.8 SE 2 4 1019.6 - 0.0 - - - - - - -
29/09:00am 12.6 SE 3 5 1019.6 - 0.4 - - - - - - -
29/08:30am 12.3 S 2 3 1019.4 - 0.4 - - - - - - -
29/08:00am 11.9 SE 2 3 1019.2 - 0.4 - - - - - - -
29/07:30am 11.5 ESE 3 5 1018.7 - 0.4 - - - - - - -
29/07:00am 11.7 ESE 2 3 1018.7 - 0.4 - - - - - - -
29/06:30am 11.7 CALM 0 1 1018.6 - 0.4 - - - - - - -
29/06:00am 11.8 ESE 2 3 1018.1 - 0.4 - - - - - - -
29/05:30am 11.9 SE 3 5 1017.7 - 0.4 - - - - - - -
29/05:00am 11.9 SE 4 5 1017.6 - 0.4 - - - - - - -
29/04:30am 11.7 ESE 4 6 1017.4 - 0.4 - - - - - - -
29/04:00am 11.6 SE 4 6 1017.3 - 0.4 - - - - - - -
29/03:30am 11.4 ESE 3 4 1017.0 - 0.4 - - - - - - -
29/03:00am 11.5 ESE 3 5 1016.8 - 0.4 - - - - - - -
29/02:30am 12.3 ESE 4 7 1016.8 - 0.4 - - - - - - -
29/02:00am 13.2 SSE 5 7 1016.7 - 0.4 - - - - - - -
29/01:30am 13.5 SSE 5 8 1016.8 - 0.4 - - - - - - -
29/01:00am 14.0 SSE 5 8 1016.6 - 0.4 - - - - - - -
29/12:30am 14.4 SE 8 11 1016.4 - 0.4 - - - - - - -
29/12:00am 13.8 SE 3 6 1016.6 - 0.4 - - - - - - -
 
Date/Time
WST
Temp

°C
Wind Pressure Rain
since 9am
mm
Weather Cloud Vis
km
Sea
Height
m
Swell
Dir
 
Speed
knots
Gust
knots
hPa Trend Height
m
Period
s
Dir
28/11:30pm 14.1 SE 3 3 1016.5 - 0.4 - - - - - - -
28/11:00pm 14.3 CALM 0 0 1016.6 - 0.4 - - - - - - -
28/10:30pm 14.3 CALM 0 0 1016.8 - 0.4 - - - - - - -
28/10:00pm 14.2 CALM 0 0 1016.8 - 0.4 - - - - - - -
28/09:30pm 14.0 CALM 0 1 1016.6 - 0.4 - - - - - - -
28/09:00pm 14.1 SE 2 3 1016.4 - 0.4 - - - - - - -
28/08:30pm 14.5 SE 3 4 1016.4 - 0.4 - - - - - - -
28/08:00pm 14.6 S 8 11 1016.4 - 0.4 - - - - - - -
28/07:30pm 15.1 SSW 3 4 1016.1 - 0.4 - - - - - - -
28/07:00pm 15.1 SSW 3 5 1015.7 - 0.4 - - - - - - -
28/06:30pm 15.2 S 5 8 1015.5 - 0.4 - - - - - - -
28/06:00pm 15.5 S 7 11 1015.1 - 0.4 Recent precip. - - - - - -
28/05:30pm 16.4 S 3 12 1014.9 - 0.2 - - - - - - -
28/05:00pm 16.9 S 4 6 1014.6 - 0.2 - - - - - - -
28/04:30pm 17.5 SW 6 9 1014.4 - 0.2 - - - - - - -
28/04:00pm 17.5 SW 9 14 1014.3 - 0.2 - - - - - - -
28/03:30pm 17.3 S 6 12 1014.3 - 0.2 - - - - - - -
28/03:00pm 17.4 SW 10 15 1014.1 - 0.2 - - - - - - -
28/02:30pm 18.5 WSW 10 20 1013.7 - 0.2 - - - - - - -
28/02:00pm 18.6 SW 9 12 1013.5 - 0.2 - - - - - - -
28/01:30pm 18.4 SW 11 16 1013.6 - 0.2 - - - - - - -
28/01:00pm 18.9 SW 11 16 1013.4 - 0.2 - - - - - - -
28/12:30pm 19.1 SW 11 17 1013.5 - 0.2 - - - - - - -
28/12:00pm 19.1 SW 8 14 1013.9 - 0.2 - - - - - - -
28/11:30am 18.7 SW 10 15 1014.2 - 0.2 - - - - - - -
28/11:00am 18.7 WSW 10 16 1014.3 - 0.2 - - - - - - -
28/10:30am 18.1 WSW 11 16 1014.5 - 0.2 - - - - - - -
28/10:00am 17.4 WSW 12 19 1014.6 - 0.2 - - - - - - -
28/09:30am 16.5 SW 13 20 1014.4 - 0.2 - - - - - - -
28/09:00am 18.1 WSW 11 18 1014.2 - 7.8 - - - - - - -
28/08:30am 17.6 WSW 11 16 1013.9 - 7.8 - - - - - - -
28/08:00am 17.4 WSW 9 14 1013.8 - 7.8 - - - - - - -
28/07:30am 17.3 WSW 12 18 1013.6 - 7.8 - - - - - - -
28/07:00am 17.2 WSW 12 17 1013.3 - 7.8 - - - - - - -
28/06:30am 16.9 WSW 10 15 1013.0 - 7.8 - - - - - - -
28/06:00am 16.9 WSW 12 19 1012.9 - 7.8 - - - - - - -
28/05:30am 17.2 WSW 11 18 1012.7 - 7.8 - - - - - - -
28/05:00am 16.9 WSW 10 14 1012.6 - 7.8 - - - - - - -
28/04:30am 16.6 WSW 11 17 1012.5 - 7.8 - - - - - - -
28/04:00am 16.2 W 12 17 1012.3 - 7.8 - - - - - - -
28/03:30am 15.7 WSW 11 17 1012.5 - 7.8 - - - - - - -
28/03:17am 15.7 WNW 19 26 1012.7 - 7.6 - - - - - - -
28/03:00am 16.2 WNW 21 29 1012.5 - 5.6 Rain - - - - - -
28/02:45am 16.6 NW 26 38 1012.7 - 3.0 - - - - - - -
28/02:38am 17.3 WNW 21 36 1012.4 - 1.8 - - - - - - -
28/02:31am 17.0 WNW 21 30 1012.4 - 1.2 - - - - - - -
28/02:30am 17.0 WNW 22 31 1012.4 - 1.2 - - - - - - -
28/02:28am 17.2 WNW 23 31 1012.5 - 1.0 - - - - - - -
28/02:00am 18.6 NW 22 29 1012.2 - 0.0 - - - - - - -
28/01:30am 18.7 NNW 23 29 1012.0 - 0.0 - - - - - - -
28/01:00am 18.5 NNW 22 28 1012.6 - 0.0 - - - - - - -
28/12:51am 18.3 N 16 25 1012.6 - 0.0 - - - - - - -
28/12:30am 16.1 N 15 19 1013.2 - 0.0 - - - - - - -
28/12:00am 16.3 NNE 13 16 1013.6 - 0.0 - - - - - - -
 
Date/Time
WST
Temp

°C
Wind Pressure Rain
since 9am
mm
Weather Cloud Vis
km
Sea
Height
m
Swell
Dir
 
Speed
knots
Gust
knots
hPa Trend Height
m
Period
s
Dir
27/11:30pm 16.4 N 13 16 1014.1 - 0.0 - - - - - - -
27/11:00pm 16.4 NNE 12 15 1014.7 - 0.0 - - - - - - -
27/10:30pm 16.8 N 12 15 1015.2 - 0.0 - - - - - - -
27/10:00pm 17.6 N 16 19 1015.7 - 0.0 - - - - - - -
27/09:30pm 17.6 NNW 17 20 1016.2 - 0.0 - - - - - - -
27/09:00pm 18.1 NNW 18 21 1016.3 - 0.0 - - - - - - -
27/08:30pm 18.5 NNW 11 14 1016.4 - 0.0 - - - - - - -
27/08:00pm 18.5 NNW 14 17 1016.6 - 0.0 - - - - - - -
27/07:30pm 18.4 NNW 8 12 1017.2 - 0.0 - - - - - - -
27/07:00pm 18.4 NW 13 24 1017.5 - 0.0 - - - - - - -
27/06:30pm 18.6 NNW 12 15 1017.4 - 0.0 - - - - - - -
27/06:00pm 18.4 NNW 12 13 1017.3 - 0.0 - - - - - - -
27/05:30pm 18.3 NNW 10 13 1017.3 - 0.0 - - - - - - -
27/05:00pm 18.1 NNW 8 9 1017.2 - 0.0 - - - - - - -
27/04:30pm 18.2 NNW 8 9 1017.1 - 0.0 - - - - - - -
27/04:00pm 18.6 N 8 11 1017.0 - 0.0 - - - - - - -
27/03:30pm 18.6 N 10 12 1017.0 - 0.0 - - - - - - -
27/03:00pm 18.5 N 9 12 1017.6 - 0.0 - - - - - - -
27/02:30pm 18.4 N 11 13 1018.2 - 0.0 - - - - - - -
27/02:00pm 18.2 N 9 11 1018.9 - 0.0 - - - - - - -
27/01:30pm 18.5 N 10 12 1019.4 - 0.0 - - - - - - -
27/01:00pm 18.2 N 8 10 1020.0 - 0.0 - - - - - - -
27/12:30pm 18.0 N 7 9 1020.6 - 0.0 - - - - - - -
27/12:00pm 17.7 N 8 10 1021.0 - 0.0 - - - - - - -
27/11:30am 16.8 N 9 11 1021.6 - 0.0 - - - - - - -
27/11:00am 16.4 NNE 8 10 1022.1 - 0.0 - - - - - - -
27/10:30am 16.6 NNE 7 10 1022.4 - 0.0 - - - - - - -
27/10:00am 15.3 NE 6 8 1022.7 - 0.0 - - - - - - -
27/09:30am 14.4 NE 7 9 1022.8 - 0.0 - - - - - - -
27/09:00am 14.0 NE 6 8 1022.6 - 0.0 - - - - - - -
27/08:30am 13.2 NE 5 8 1022.6 - 0.0 - - - - - - -
27/08:00am 12.5 NE 7 9 1022.5 - 0.0 - - - - - - -
27/07:30am 12.1 ENE 4 7 1022.4 - 0.0 - - - - - - -
27/07:00am 11.7 ENE 3 5 1022.4 - 0.0 - - - - - - -
27/06:30am 11.4 ENE 1 2 1022.1 - 0.0 - - - - - - -
27/06:00am 11.2 ENE 4 6 1021.9 - 0.0 - - - - - - -
27/05:30am 10.4 ENE 3 4 1021.8 - 0.0 - - - - - - -
27/05:00am 10.7 E 5 8 1021.7 - 0.0 - - - - - - -
27/04:30am 10.7 ENE 5 7 1022.0 - 0.0 - - - - - - -
27/04:00am 10.5 ESE 3 5 1022.3 - 0.0 - - - - - - -
27/03:30am 10.9 ENE 3 4 1022.2 - 0.0 - - - - - - -
27/03:00am 11.0 ENE 1 2 1022.5 - 0.0 - - - - - - -
27/02:30am 11.2 ENE 2 4 1022.5 - 0.0 - - - - - - -
27/02:00am 11.0 ENE 3 6 1022.2 - 0.0 - - - - - - -
27/01:30am 10.7 ENE 3 5 1022.6 - 0.0 - - - - - - -
27/01:00am 11.1 ENE 2 3 1022.5 - 0.0 - - - - - - -
27/12:30am 11.5 ENE 4 6 1022.3 - 0.0 - - - - - - -
27/12:00am 10.9 SE 1 4 1022.5 - 0.0 - - - - - - -
 
Date/Time
WST
Temp

°C
Wind Pressure Rain
since 9am
mm
Weather Cloud Vis
km
Sea
Height
m
Swell
Dir
 
Speed
knots
Gust
knots
hPa Trend Height
m
Period
s
Dir
26/11:30pm 10.9 CALM 0 0 1022.7 - 0.0 - - - - - - -
26/11:00pm 11.6 CALM 0 1 1022.8 - 0.0 - - - - - - -
26/10:30pm 11.7 CALM 0 0 1022.8 - 0.0 - - - - - - -
26/10:00pm 12.2 CALM 0 1 1022.8 - 0.0 - - - - - - -
26/09:30pm 12.4 SE 1 2 1022.7 - 0.0 - - - - - - -
26/09:00pm 13.1 SE 2 2 1022.5 - 0.0 - - - - - - -
26/08:30pm 13.6 SE 2 3 1022.4 - 0.0 - - - - - - -
26/08:00pm 14.5 SE 2 4 1022.0 - 0.0 - - - - - - -
26/07:30pm 14.5 CALM 0 0 1022.0 - 0.0 - - - - - - -
26/07:00pm 14.8 SE 2 3 1021.6 - 0.0 - - - - - - -
26/06:30pm 15.2 S 1 2 1021.0 - 0.0 - - - - - - -
26/06:00pm 15.8 S 1 2 1020.6 - 0.0 - - - - - - -

Other Formats:

Comma delimited format used in spreadsheet applications
http://www.bom.gov.au/fwo/IDW60701/IDW60701.94605.axf

JavaScript Object Notation format (JSON) in row-major order
http://www.bom.gov.au/fwo/IDW60701/IDW60701.94605.json